Time;durP1;ratioP1;P1;durP2;ratioP2;P2;SDS_P1;SDS_P2;PMS_P1;PMS_P2;Temp;Humidity;BMP_temperature;BMP_pressure;BME280_temperature;BME280_humidity;BME280_pressure;Samples;Min_cycle;Max_cycle;Signal;HPM_P1;HPM_P2
2023/02/04 00:00:44;;;;;;;3.72;2.53;;;7.60;99.90;;;;;;5005281;28;20236;-47
2023/02/04 00:03:13;;;;;;;3.00;2.20;;;7.60;99.90;;;;;;5005403;28;20201;-48
2023/02/04 00:05:42;;;;;;;4.20;2.20;;;7.70;99.90;;;;;;5005372;28;20251;-47
2023/02/04 00:08:11;;;;;;;2.85;2.35;;;7.70;99.90;;;;;;5004948;28;20524;-47
2023/02/04 00:10:39;;;;;;;3.50;2.53;;;7.70;99.90;;;;;;5001984;28;20752;-47
2023/02/04 00:13:08;;;;;;;2.83;2.22;;;7.70;99.90;;;;;;5004162;28;20677;-48
2023/02/04 00:15:38;;;;;;;3.10;2.80;;;7.60;99.90;;;;;;5005882;28;20289;-48
2023/02/04 00:18:08;;;;;;;6.07;2.50;;;7.70;99.90;;;;;;5005124;28;20200;-46
2023/02/04 00:20:36;;;;;;;3.38;2.10;;;7.70;99.90;;;;;;5002575;28;20216;-46
2023/02/04 00:23:05;;;;;;;2.63;2.20;;;7.70;99.90;;;;;;4999290;28;20204;-46
2023/02/04 00:25:34;;;;;;;7.55;2.38;;;7.70;99.90;;;;;;5001650;28;20698;-48
2023/02/04 00:28:02;;;;;;;4.28;2.08;;;7.70;99.90;;;;;;4999275;28;20216;-49
2023/02/04 00:30:32;;;;;;;3.65;2.20;;;7.70;99.90;;;;;;5002134;28;20234;-47
2023/02/04 00:33:02;;;;;;;4.25;2.20;;;7.70;99.90;;;;;;5002407;28;20208;-47
2023/02/04 00:35:31;;;;;;;4.95;1.80;;;7.70;99.90;;;;;;5006198;28;20292;-47
2023/02/04 00:37:59;;;;;;;4.93;2.15;;;7.60;99.90;;;;;;5007214;28;20262;-46
2023/02/04 00:40:28;;;;;;;3.75;2.10;;;7.70;99.90;;;;;;5003554;28;20228;-48
2023/02/04 00:42:57;;;;;;;7.30;2.60;;;7.70;99.90;;;;;;4994096;28;20196;-47
2023/02/04 00:45:25;;;;;;;2.22;2.00;;;7.60;99.90;;;;;;5000510;28;20203;-46
2023/02/04 00:47:54;;;;;;;4.10;1.80;;;7.70;99.90;;;;;;5002041;28;20192;-47
2023/02/04 00:50:24;;;;;;;2.47;2.10;;;7.60;99.90;;;;;;5007024;28;20977;-48
2023/02/04 00:52:53;;;;;;;4.10;1.90;;;7.70;99.90;;;;;;5006890;28;20289;-47
2023/02/04 00:55:21;;;;;;;4.53;2.40;;;7.70;99.90;;;;;;5002592;28;20422;-48
2023/02/04 00:57:50;;;;;;;2.90;1.75;;;7.60;99.90;;;;;;5000942;28;20228;-47
2023/02/04 01:00:19;;;;;;;3.20;1.90;;;7.60;99.90;;;;;;5004720;28;20267;-47
2023/02/04 01:02:48;;;;;;;5.38;1.80;;;7.60;99.90;;;;;;5005031;28;20204;-47
2023/02/04 01:05:16;;;;;;;3.58;2.13;;;7.70;99.90;;;;;;5004346;28;20203;-47
2023/02/04 01:07:46;;;;;;;2.90;1.90;;;7.60;99.90;;;;;;5005258;28;20204;-46
2023/02/04 01:10:16;;;;;;;2.28;2.08;;;7.70;99.90;;;;;;5003238;28;20671;-47
2023/02/04 01:12:45;;;;;;;2.95;2.22;;;7.70;99.90;;;;;;5006873;28;20195;-46
2023/02/04 01:15:14;;;;;;;2.22;1.75;;;7.60;99.90;;;;;;4990214;28;20296;-47
2023/02/04 01:17:43;;;;;;;3.08;2.00;;;7.70;99.90;;;;;;4992791;28;20714;-48
2023/02/04 01:20:12;;;;;;;2.45;2.25;;;7.70;99.90;;;;;;5005698;28;20616;-46
2023/02/04 01:22:41;;;;;;;2.53;2.20;;;7.70;99.90;;;;;;5004516;28;20223;-48
2023/02/04 01:25:14;;;;;;;4.32;2.05;;;7.70;99.90;;;;;;5004470;28;20200;-48
2023/02/04 01:27:43;;;;;;;3.00;2.10;;;7.70;99.90;;;;;;4999904;28;20229;-48
2023/02/04 01:30:14;;;;;;;3.17;2.17;;;7.70;99.90;;;;;;5003392;28;20208;-45
2023/02/04 01:32:42;;;;;;;5.05;2.33;;;7.70;99.90;;;;;;5001315;28;20192;-48
2023/02/04 01:35:11;;;;;;;2.08;1.88;;;7.60;99.90;;;;;;5003438;28;20513;-47
2023/02/04 01:37:40;;;;;;;1.50;1.30;;;7.70;99.90;;;;;;5024378;28;20249;-47
2023/02/04 01:40:10;;;;;;;2.47;1.60;;;7.70;99.90;;;;;;5015756;28;20209;-48
2023/02/04 01:42:41;;;;;;;2.33;1.90;;;7.60;99.90;;;;;;5023394;28;20236;-47
2023/02/04 01:45:10;;;;;;;2.85;1.90;;;7.70;99.90;;;;;;5025851;28;20206;-46
2023/02/04 01:47:40;;;;;;;2.30;1.90;;;7.60;99.90;;;;;;4999228;28;20209;-49
2023/02/04 01:50:11;;;;;;;3.40;1.98;;;7.60;99.90;;;;;;5005102;28;20204;-48
2023/02/04 01:52:40;;;;;;;2.30;1.65;;;7.70;99.90;;;;;;5002660;28;20633;-46
2023/02/04 01:55:14;;;;;;;5.28;1.98;;;7.60;99.90;;;;;;5006260;28;20590;-48
2023/02/04 01:57:45;;;;;;;2.53;1.70;;;7.60;99.90;;;;;;5000383;28;20220;-47
2023/02/04 02:00:17;;;;;;;2.95;2.50;;;7.60;99.90;;;;;;4998100;28;20206;-48
2023/02/04 02:02:50;;;;;;;1.90;1.40;;;7.70;99.90;;;;;;4986227;28;20216;-48
2023/02/04 02:05:22;;;;;;;4.72;1.60;;;7.70;99.90;;;;;;4998754;28;20204;-48
2023/02/04 02:07:53;;;;;;;2.58;1.65;;;7.70;99.90;;;;;;4997060;28;20697;-48
2023/02/04 02:10:23;;;;;;;1.70;1.60;;;7.60;99.90;;;;;;4997122;28;20237;-47
2023/02/04 02:12:54;;;;;;;3.58;1.60;;;7.60;99.90;;;;;;5002292;28;20204;-47
2023/02/04 02:15:23;;;;;;;2.30;1.83;;;7.70;99.90;;;;;;5002477;28;20660;-47
2023/02/04 02:17:53;;;;;;;1.98;1.60;;;7.60;99.90;;;;;;5000406;28;20471;-47
2023/02/04 02:20:23;;;;;;;4.72;2.13;;;7.70;99.90;;;;;;5003983;28;20234;-46
2023/02/04 02:23:02;;;;;;;2.60;1.67;;;7.70;99.90;;;;;;5002371;28;20432;-46
2023/02/04 02:25:33;;;;;;;1.83;1.60;;;7.70;99.90;;;;;;5003191;28;20242;-45
2023/02/04 02:28:07;;;;;;;3.60;2.08;;;7.60;99.90;;;;;;5003853;28;20205;-46
2023/02/04 02:30:36;;;;;;;3.03;1.75;;;7.70;99.90;;;;;;4997875;28;20761;-47
2023/02/04 02:33:05;;;;;;;2.00;1.70;;;7.60;99.90;;;;;;5003531;28;20588;-47
2023/02/04 02:35:34;;;;;;;2.65;1.70;;;7.60;99.90;;;;;;4998715;28;20565;-49
2023/02/04 02:38:02;;;;;;;3.65;2.05;;;7.70;99.90;;;;;;5002748;28;20271;-47
2023/02/04 02:40:32;;;;;;;1.70;1.60;;;7.70;99.90;;;;;;5005089;28;20216;-47
2023/02/04 02:43:02;;;;;;;3.00;1.60;;;7.70;99.90;;;;;;5009202;28;20227;-46
2023/02/04 02:45:32;;;;;;;2.30;1.80;;;7.60;99.90;;;;;;5008063;28;20195;-49
2023/02/04 02:48:02;;;;;;;2.05;1.70;;;7.70;99.90;;;;;;5007664;28;20682;-47
2023/02/04 02:50:32;;;;;;;3.95;1.60;;;7.70;99.90;;;;;;5008279;28;20232;-47
2023/02/04 02:53:03;;;;;;;3.28;1.65;;;7.60;99.90;;;;;;5007524;28;20196;-46
2023/02/04 02:55:33;;;;;;;1.63;1.52;;;7.60;99.90;;;;;;5007172;28;20197;-47
2023/02/04 02:58:05;;;;;;;2.75;1.48;;;7.70;99.90;;;;;;5004976;28;20228;-47
2023/02/04 03:00:34;;;;;;;2.97;1.60;;;7.60;99.90;;;;;;5001439;28;20241;-49
2023/02/04 03:03:10;;;;;;;3.50;1.60;;;7.60;99.90;;;;;;5006421;28;20597;-47
2023/02/04 03:05:42;;;;;;;1.75;1.30;;;7.70;99.90;;;;;;5004062;28;20200;-48
2023/02/04 03:08:13;;;;;;;2.00;1.52;;;7.70;99.90;;;;;;5008176;28;20201;-47
2023/02/04 03:10:45;;;;;;;2.45;1.75;;;7.70;99.90;;;;;;5003857;28;20228;-47
2023/02/04 03:13:15;;;;;;;2.03;1.40;;;7.70;99.90;;;;;;5005060;28;20286;-48
2023/02/04 03:15:47;;;;;;;5.43;1.65;;;7.60;99.90;;;;;;4997588;28;20804;-47
2023/02/04 03:18:19;;;;;;;1.95;1.52;;;7.70;99.90;;;;;;5003928;28;20286;-47
2023/02/04 03:20:48;;;;;;;5.13;2.00;;;7.60;99.90;;;;;;5001087;28;20235;-48
2023/02/04 03:23:18;;;;;;;3.90;1.50;;;7.60;99.90;;;;;;5006510;28;20207;-46
2023/02/04 03:25:48;;;;;;;1.40;1.30;;;7.60;99.90;;;;;;4999272;28;20439;-47
2023/02/04 03:28:18;;;;;;;1.38;1.10;;;7.60;99.90;;;;;;5008820;28;20421;-47
2023/02/04 03:30:53;;;;;;;1.65;1.52;;;7.60;99.90;;;;;;5006505;28;20260;-48
2023/02/04 03:33:23;;;;;;;2.85;1.35;;;7.60;99.90;;;;;;5006210;28;20209;-48
2023/02/04 03:35:51;;;;;;;2.53;1.55;;;7.70;99.90;;;;;;5005867;28;20616;-46
2023/02/04 03:38:20;;;;;;;2.75;1.65;;;7.60;99.90;;;;;;5005052;28;20225;-49
2023/02/04 03:40:50;;;;;;;1.92;1.73;;;7.60;99.90;;;;;;5002620;28;20769;-48
2023/02/04 03:43:18;;;;;;;1.52;1.40;;;7.70;99.90;;;;;;5007959;28;20193;-47
2023/02/04 03:45:47;;;;;;;2.85;1.50;;;7.60;99.90;;;;;;5006690;28;20688;-47
2023/02/04 03:48:15;;;;;;;1.70;1.60;;;7.70;99.90;;;;;;5006090;28;20569;-48
2023/02/04 03:50:44;;;;;;;3.40;1.90;;;7.70;99.90;;;;;;5005678;28;20732;-47
2023/02/04 03:53:13;;;;;;;1.77;1.42;;;7.60;99.90;;;;;;5006826;28;20259;-48
2023/02/04 03:55:41;;;;;;;2.20;2.00;;;7.60;99.90;;;;;;5006758;28;20215;-47
2023/02/04 03:58:11;;;;;;;1.35;1.10;;;7.60;99.90;;;;;;5007241;28;20219;-47
2023/02/04 04:00:40;;;;;;;1.67;1.20;;;7.60;99.90;;;;;;5007284;28;20223;-47
2023/02/04 04:03:08;;;;;;;1.90;1.60;;;7.60;99.90;;;;;;5004486;28;20249;-47
2023/02/04 04:05:37;;;;;;;1.27;1.15;;;7.70;99.90;;;;;;5007237;28;21113;-46
2023/02/04 04:08:05;;;;;;;2.65;1.60;;;7.70;99.90;;;;;;5007480;28;20201;-47
2023/02/04 04:10:34;;;;;;;1.20;1.10;;;7.70;99.90;;;;;;5007116;28;20224;-47
2023/02/04 04:13:02;;;;;;;2.33;1.50;;;7.70;99.90;;;;;;5007820;28;20538;-47
2023/02/04 04:15:32;;;;;;;1.65;1.50;;;7.60;99.90;;;;;;5006516;28;20754;-48
2023/02/04 04:18:03;;;;;;;2.05;1.73;;;7.60;99.90;;;;;;5003519;28;20231;-46
2023/02/04 04:20:31;;;;;;;2.40;1.30;;;7.60;99.90;;;;;;5005154;28;20220;-47
2023/02/04 04:23:00;;;;;;;1.65;1.50;;;7.60;99.90;;;;;;5007253;28;20454;-47
2023/02/04 04:25:29;;;;;;;1.95;1.45;;;7.60;99.90;;;;;;5006088;28;20196;-48
2023/02/04 04:27:57;;;;;;;1.65;1.27;;;7.70;99.90;;;;;;5003010;28;20211;-47
2023/02/04 04:30:26;;;;;;;3.45;1.50;;;7.60;99.90;;;;;;5005513;28;20282;-46
2023/02/04 04:32:56;;;;;;;3.60;1.42;;;7.60;99.90;;;;;;5006027;28;20201;-47
2023/02/04 04:35:24;;;;;;;1.48;1.20;;;7.60;99.90;;;;;;5006327;28;20202;-46
2023/02/04 04:37:53;;;;;;;2.80;1.40;;;7.60;99.90;;;;;;5005801;28;20211;-47
2023/02/04 04:40:22;;;;;;;1.50;1.20;;;7.60;99.90;;;;;;5005113;28;20466;-47
2023/02/04 04:42:50;;;;;;;2.50;1.40;;;7.60;99.90;;;;;;5004870;28;20291;-47
2023/02/04 04:45:19;;;;;;;1.83;1.10;;;7.60;99.90;;;;;;5006375;28;20205;-47
2023/02/04 04:47:47;;;;;;;1.75;1.10;;;7.60;99.90;;;;;;5004022;28;20203;-47
2023/02/04 04:50:18;;;;;;;1.55;1.35;;;7.60;99.90;;;;;;5006849;28;20231;-46
2023/02/04 04:52:46;;;;;;;3.40;1.92;;;7.60;99.90;;;;;;5005255;28;20224;-46
2023/02/04 04:55:15;;;;;;;1.52;1.38;;;7.60;99.90;;;;;;5005162;28;20203;-48
2023/02/04 04:57:46;;;;;;;3.92;1.80;;;7.60;99.90;;;;;;5006640;28;20277;-47
2023/02/04 05:00:17;;;;;;;1.50;1.40;;;7.60;99.90;;;;;;5006979;28;20598;-47
2023/02/04 05:02:46;;;;;;;1.30;1.20;;;7.60;99.90;;;;;;5003684;28;20227;-47
2023/02/04 05:05:15;;;;;;;2.70;1.83;;;7.60;99.90;;;;;;5003663;28;20191;-46
2023/02/04 05:07:45;;;;;;;1.67;1.55;;;7.60;99.90;;;;;;5003539;28;20588;-47
2023/02/04 05:10:13;;;;;;;3.38;1.40;;;7.60;99.90;;;;;;5003912;28;20705;-46
2023/02/04 05:12:42;;;;;;;1.70;1.35;;;7.60;99.90;;;;;;5002131;28;20221;-47
2023/02/04 05:15:10;;;;;;;2.28;1.55;;;7.60;99.90;;;;;;5002535;28;20196;-47
2023/02/04 05:17:39;;;;;;;2.47;1.45;;;7.60;99.90;;;;;;5000640;28;20211;-46
2023/02/04 05:20:09;;;;;;;1.75;1.20;;;7.60;99.90;;;;;;5001580;28;20217;-46
2023/02/04 05:22:37;;;;;;;1.98;1.10;;;7.60;99.90;;;;;;5004874;28;20219;-48
2023/02/04 05:25:07;;;;;;;1.70;1.42;;;7.60;99.90;;;;;;5006918;28;20201;-46
2023/02/04 05:27:36;;;;;;;2.38;1.40;;;7.60;99.90;;;;;;4998568;28;20220;-47
2023/02/04 05:30:05;;;;;;;2.80;2.20;;;7.60;99.90;;;;;;5006981;28;20204;-47
2023/02/04 05:32:33;;;;;;;2.22;1.80;;;7.60;99.90;;;;;;5001583;28;20227;-49
2023/02/04 05:35:02;;;;;;;2.78;1.88;;;7.60;99.90;;;;;;5007097;28;20211;-48
2023/02/04 05:37:32;;;;;;;4.05;1.48;;;7.60;99.90;;;;;;4993748;28;20229;-47
2023/02/04 05:40:01;;;;;;;1.02;0.93;;;7.60;99.90;;;;;;5004853;28;20736;-46
2023/02/04 05:42:31;;;;;;;1.40;1.25;;;7.60;99.90;;;;;;5002741;28;20225;-47
2023/02/04 05:45:00;;;;;;;1.40;1.30;;;7.60;99.90;;;;;;5006226;28;20200;-47
2023/02/04 05:47:28;;;;;;;2.88;1.38;;;7.60;99.90;;;;;;5003562;28;20500;-48
2023/02/04 05:49:57;;;;;;;4.35;1.77;;;7.60;99.90;;;;;;5006066;28;20205;-49
2023/02/04 05:52:25;;;;;;;1.90;1.20;;;7.60;99.90;;;;;;5003635;28;20228;-47
2023/02/04 05:54:54;;;;;;;1.42;1.20;;;7.60;99.90;;;;;;5004244;28;20204;-47
2023/02/04 05:57:22;;;;;;;3.35;1.23;;;7.60;99.90;;;;;;5005076;28;20575;-46
2023/02/04 05:59:55;;;;;;;1.27;1.17;;;7.60;99.90;;;;;;5001382;28;20208;-48
2023/02/04 06:02:24;;;;;;;1.38;1.27;;;7.60;99.90;;;;;;5000742;28;20755;-47
2023/02/04 06:04:52;;;;;;;3.50;1.40;;;7.60;99.90;;;;;;5000155;28;20201;-46
2023/02/04 06:07:21;;;;;;;2.00;1.20;;;7.60;99.90;;;;;;5003565;28;20224;-49
2023/02/04 06:09:49;;;;;;;4.25;1.30;;;7.60;99.90;;;;;;4997115;28;20228;-49
2023/02/04 06:12:19;;;;;;;1.63;1.10;;;7.60;99.90;;;;;;5000605;28;20217;-46
2023/02/04 06:14:48;;;;;;;1.60;1.23;;;7.60;99.90;;;;;;5007582;28;20249;-48
2023/02/04 06:17:18;;;;;;;1.55;1.40;;;7.60;99.90;;;;;;5006784;28;20229;-46
2023/02/04 06:19:46;;;;;;;1.65;1.02;;;7.60;99.90;;;;;;5008677;28;20222;-48
2023/02/04 06:22:15;;;;;;;1.75;1.27;;;7.60;99.90;;;;;;5007451;28;20231;-47
2023/02/04 06:24:43;;;;;;;2.80;1.35;;;7.60;99.90;;;;;;5009341;28;20192;-46
2023/02/04 06:27:17;;;;;;;2.95;1.55;;;7.60;99.90;;;;;;5001760;28;20710;-47
2023/02/04 06:29:46;;;;;;;3.63;1.23;;;7.60;99.90;;;;;;5006697;28;20197;-47
2023/02/04 06:32:14;;;;;;;2.50;1.05;;;7.60;99.90;;;;;;4988130;28;20844;-48
2023/02/04 06:34:44;;;;;;;1.60;1.30;;;7.60;99.90;;;;;;5007614;28;20212;-45
2023/02/04 06:37:14;;;;;;;1.90;0.90;;;7.60;99.90;;;;;;5003805;28;20231;-48
2023/02/04 06:39:43;;;;;;;2.92;1.42;;;7.60;99.90;;;;;;5009440;28;20567;-48
2023/02/04 06:42:12;;;;;;;1.15;0.90;;;7.60;99.90;;;;;;5005092;28;20316;-49
2023/02/04 06:44:40;;;;;;;1.27;1.17;;;7.60;99.90;;;;;;5009162;28;20291;-47
2023/02/04 06:47:09;;;;;;;3.15;1.42;;;7.60;99.90;;;;;;5004757;28;20617;-48
2023/02/04 06:49:41;;;;;;;1.27;1.17;;;7.60;99.90;;;;;;5007350;28;20196;-48
2023/02/04 06:52:10;;;;;;;1.40;0.95;;;7.60;99.90;;;;;;5005065;28;20232;-47
2023/02/04 06:54:39;;;;;;;2.90;1.23;;;7.60;99.90;;;;;;5008930;28;20253;-47
2023/02/04 06:57:08;;;;;;;4.45;1.23;;;7.60;99.90;;;;;;5005943;28;20228;-46
2023/02/04 06:59:37;;;;;;;3.28;1.20;;;7.60;99.90;;;;;;5009033;28;20216;-47
2023/02/04 07:02:07;;;;;;;4.03;1.45;;;7.60;99.90;;;;;;4999553;28;20741;-47
2023/02/04 07:04:36;;;;;;;1.83;1.67;;;7.60;99.90;;;;;;5004787;28;20224;-47
2023/02/04 07:07:04;;;;;;;2.28;1.20;;;7.60;99.90;;;;;;5008390;28;20286;-49
2023/02/04 07:09:34;;;;;;;5.57;1.35;;;7.60;99.90;;;;;;5001540;28;20196;-48
2023/02/04 07:12:03;;;;;;;1.90;1.40;;;7.60;99.90;;;;;;5010093;28;20224;-47
2023/02/04 07:14:31;;;;;;;1.90;1.35;;;7.60;99.90;;;;;;5009813;28;20829;-48
2023/02/04 07:17:00;;;;;;;1.25;1.00;;;7.60;99.90;;;;;;5005316;28;20221;-48
2023/02/04 07:19:28;;;;;;;1.70;1.25;;;7.60;99.90;;;;;;5005692;28;20213;-47
2023/02/04 07:21:57;;;;;;;1.15;1.00;;;7.60;99.90;;;;;;5009963;28;20783;-46
2023/02/04 07:24:25;;;;;;;2.13;1.40;;;7.60;99.90;;;;;;5009004;28;20200;-47
2023/02/04 07:26:55;;;;;;;1.80;1.35;;;7.60;99.90;;;;;;5006791;28;20315;-47
2023/02/04 07:29:24;;;;;;;4.18;1.55;;;7.60;99.90;;;;;;5010837;28;20196;-47
2023/02/04 07:31:53;;;;;;;1.60;1.20;;;7.60;99.90;;;;;;5011228;28;20319;-48
2023/02/04 07:34:22;;;;;;;4.03;1.55;;;7.60;99.90;;;;;;5028170;28;20579;-47
2023/02/04 07:36:51;;;;;;;1.60;1.02;;;7.60;99.90;;;;;;5027217;28;20399;-47
2023/02/04 07:39:19;;;;;;;1.33;1.23;;;7.60;99.90;;;;;;5029294;28;20657;-48
2023/02/04 07:41:48;;;;;;;1.35;1.25;;;7.60;99.90;;;;;;5025353;28;20223;-47
2023/02/04 07:44:24;;;;;;;2.05;1.38;;;7.60;99.90;;;;;;5019534;28;20210;-48
2023/02/04 07:46:52;;;;;;;2.25;1.30;;;7.60;99.90;;;;;;5026381;28;20227;-47
2023/02/04 07:49:21;;;;;;;2.42;1.30;;;7.60;99.90;;;;;;5026669;28;20248;-49
2023/02/04 07:51:49;;;;;;;1.85;1.20;;;7.60;99.90;;;;;;5027792;28;20628;-46
2023/02/04 07:54:18;;;;;;;2.88;1.13;;;7.60;99.90;;;;;;5004436;28;20243;-48
2023/02/04 07:56:46;;;;;;;2.70;1.35;;;7.60;99.90;;;;;;5006799;28;20309;-46
2023/02/04 07:59:15;;;;;;;2.40;1.27;;;7.60;99.90;;;;;;5004221;28;20192;-46
2023/02/04 08:01:46;;;;;;;1.30;1.10;;;7.60;99.90;;;;;;5006879;28;20470;-48
2023/02/04 08:04:15;;;;;;;1.40;1.30;;;7.60;99.90;;;;;;5004147;28;20287;-46
2023/02/04 08:06:44;;;;;;;1.40;1.10;;;7.60;99.90;;;;;;5008016;28;20274;-47
2023/02/04 08:09:12;;;;;;;1.55;1.10;;;7.60;99.90;;;;;;5006377;28;20568;-48
2023/02/04 08:11:41;;;;;;;1.52;1.10;;;7.60;99.90;;;;;;5001454;28;20223;-46
2023/02/04 08:14:10;;;;;;;1.85;1.33;;;7.60;99.90;;;;;;4984432;28;20250;-48
2023/02/04 08:16:38;;;;;;;1.88;1.02;;;7.60;99.90;;;;;;5005098;28;20242;-47
2023/02/04 08:19:08;;;;;;;1.52;1.10;;;7.60;99.90;;;;;;5003330;28;20212;-46
2023/02/04 08:21:37;;;;;;;3.47;1.20;;;7.60;99.90;;;;;;5001083;28;20224;-47
2023/02/04 08:24:06;;;;;;;1.23;1.13;;;7.60;99.90;;;;;;5003587;28;20223;-47
2023/02/04 08:26:35;;;;;;;1.95;1.30;;;7.60;99.90;;;;;;4999060;28;20221;-46
2023/02/04 08:29:03;;;;;;;1.97;1.60;;;7.60;99.90;;;;;;5005679;28;20200;-46
2023/02/04 08:31:32;;;;;;;1.65;1.00;;;7.60;99.90;;;;;;5006045;28;20491;-48
2023/02/04 08:34:01;;;;;;;2.10;1.10;;;7.60;99.90;;;;;;5002094;28;20633;-47
2023/02/04 08:36:31;;;;;;;3.63;0.90;;;7.60;99.90;;;;;;5004350;28;20224;-47
2023/02/04 08:39:00;;;;;;;1.10;1.00;;;7.60;99.90;;;;;;5002818;28;20207;-48
2023/02/04 08:41:29;;;;;;;1.98;1.17;;;7.60;99.90;;;;;;4988640;28;20238;-47
2023/02/04 08:43:57;;;;;;;1.23;1.08;;;7.60;99.90;;;;;;5003807;28;20224;-47
2023/02/04 08:46:26;;;;;;;1.05;0.93;;;7.60;99.90;;;;;;5007183;28;20197;-46
2023/02/04 08:48:55;;;;;;;1.73;1.30;;;7.60;99.90;;;;;;5004594;28;20201;-46
2023/02/04 08:51:23;;;;;;;1.02;0.90;;;7.60;99.90;;;;;;5003597;28;20231;-46
2023/02/04 08:53:53;;;;;;;1.92;1.40;;;7.60;99.90;;;;;;5003435;28;20195;-46
2023/02/04 08:56:22;;;;;;;1.20;1.02;;;7.60;99.90;;;;;;5001735;28;20204;-46
2023/02/04 08:58:51;;;;;;;1.88;1.20;;;7.60;99.90;;;;;;5005118;28;20207;-48
2023/02/04 09:01:20;;;;;;;4.15;1.45;;;7.60;99.90;;;;;;5002149;28;20227;-48
2023/02/04 09:03:49;;;;;;;2.35;1.15;;;7.60;99.90;;;;;;5003468;28;20208;-46
2023/02/04 09:06:18;;;;;;;1.65;0.90;;;7.60;99.90;;;;;;5005054;28;20207;-47
2023/02/04 09:08:46;;;;;;;0.93;0.93;;;7.60;99.90;;;;;;5005574;28;20216;-47
2023/02/04 09:11:16;;;;;;;1.02;0.93;;;7.60;99.90;;;;;;4988368;28;20463;-46
2023/02/04 09:13:45;;;;;;;1.98;1.15;;;7.60;99.90;;;;;;5002337;28;20191;-47
2023/02/04 09:16:14;;;;;;;2.53;1.35;;;7.60;99.90;;;;;;5006804;28;20204;-47
2023/02/04 09:18:42;;;;;;;1.60;1.00;;;7.60;99.90;;;;;;5002319;28;20292;-47
2023/02/04 09:21:11;;;;;;;2.55;1.60;;;7.60;99.90;;;;;;5004930;28;20277;-46
2023/02/04 09:23:39;;;;;;;3.88;1.20;;;7.60;99.90;;;;;;5005235;28;20186;-47
2023/02/04 09:26:08;;;;;;;2.03;1.50;;;7.60;99.90;;;;;;5004676;28;20197;-47
2023/02/04 09:28:38;;;;;;;2.75;1.35;;;7.60;99.90;;;;;;5005316;28;20454;-48
2023/02/04 09:31:07;;;;;;;3.97;2.03;;;7.60;99.90;;;;;;5005623;28;20783;-48
2023/02/04 09:33:36;;;;;;;1.85;1.30;;;7.60;99.90;;;;;;4996334;28;20188;-47
2023/02/04 09:36:05;;;;;;;2.63;1.33;;;7.60;99.90;;;;;;5002867;28;20211;-46
2023/02/04 09:38:37;;;;;;;3.35;1.50;;;7.60;99.90;;;;;;4997088;28;20204;-46
2023/02/04 09:41:08;;;;;;;2.22;2.00;;;7.60;99.90;;;;;;5004914;28;20796;-47
2023/02/04 09:43:40;;;;;;;1.70;1.58;;;7.60;99.90;;;;;;4994100;28;20200;-47
2023/02/04 09:46:18;;;;;;;3.60;2.42;;;7.60;99.90;;;;;;5002563;28;20228;-47
2023/02/04 09:48:47;;;;;;;2.65;1.42;;;7.60;99.90;;;;;;5007867;28;20608;-46
2023/02/04 09:51:19;;;;;;;6.40;2.50;;;7.60;99.90;;;;;;5005979;28;20690;-47
2023/02/04 09:53:52;;;;;;;9.63;3.15;;;7.60;99.90;;;;;;5007147;28;20200;-48
2023/02/04 09:56:21;;;;;;;6.80;3.30;;;7.60;99.90;;;;;;5005843;28;20203;-47
2023/02/04 09:58:51;;;;;;;4.72;3.08;;;7.60;99.90;;;;;;5009313;28;20250;-47
2023/02/04 10:01:21;;;;;;;9.38;3.53;;;7.60;99.90;;;;;;5005415;28;20215;-47
2023/02/04 10:03:50;;;;;;;3.60;1.90;;;7.60;99.90;;;;;;5007936;28;20287;-46
2023/02/04 10:06:21;;;;;;;6.18;2.08;;;7.60;99.90;;;;;;5009815;28;20197;-47
2023/02/04 10:08:54;;;;;;;5.45;2.80;;;7.60;99.90;;;;;;5007636;28;20221;-47
2023/02/04 10:11:24;;;;;;;4.15;2.75;;;7.60;99.90;;;;;;5006847;28;20279;-47
2023/02/04 10:13:56;;;;;;;3.60;2.60;;;7.60;99.90;;;;;;5007569;28;20540;-45
2023/02/04 10:16:28;;;;;;;3.97;2.20;;;7.60;99.90;;;;;;5008020;28;20219;-47
2023/02/04 10:19:00;;;;;;;9.32;3.28;;;7.60;99.90;;;;;;5002213;28;20287;-47
2023/02/04 10:21:31;;;;;;;4.72;2.53;;;7.60;99.90;;;;;;5007459;28;20657;-46
2023/02/04 10:24:02;;;;;;;4.13;3.03;;;7.60;99.90;;;;;;5006978;28;20653;-48
2023/02/04 10:26:32;;;;;;;4.35;2.60;;;7.60;99.90;;;;;;5007586;28;20257;-46
2023/02/04 10:29:05;;;;;;;6.70;3.13;;;7.60;99.90;;;;;;5003838;28;20213;-48
2023/02/04 10:31:39;;;;;;;4.70;2.55;;;7.60;99.90;;;;;;5003894;28;20220;-47
2023/02/04 10:34:14;;;;;;;5.90;2.20;;;7.60;99.90;;;;;;5008744;28;20205;-49
2023/02/04 10:36:48;;;;;;;6.90;2.85;;;7.60;99.90;;;;;;5009613;28;20628;-46
2023/02/04 10:39:19;;;;;;;6.50;2.42;;;7.60;99.90;;;;;;5010035;28;20195;-47
2023/02/04 10:41:49;;;;;;;4.55;2.40;;;7.60;99.90;;;;;;5005583;28;20661;-45
2023/02/04 10:44:25;;;;;;;4.30;2.70;;;7.60;99.90;;;;;;5000178;28;20717;-47
2023/02/04 10:46:59;;;;;;;4.38;2.60;;;7.60;99.90;;;;;;5004046;28;20277;-47
2023/02/04 10:49:28;;;;;;;5.50;2.90;;;7.60;99.90;;;;;;5006530;28;20751;-47
2023/02/04 10:51:57;;;;;;;5.10;2.70;;;7.60;99.90;;;;;;5003621;28;20230;-47
2023/02/04 10:54:35;;;;;;;4.18;2.50;;;7.60;99.90;;;;;;5008366;28;20196;-46
2023/02/04 10:57:18;;;;;;;5.13;2.53;;;7.60;99.90;;;;;;5005759;28;20316;-46
2023/02/04 10:59:53;;;;;;;4.90;2.20;;;7.60;99.90;;;;;;5000083;28;20670;-48
2023/02/04 11:02:36;;;;;;;3.83;2.70;;;7.60;99.90;;;;;;5004235;28;20594;-46
2023/02/04 11:05:10;;;;;;;5.28;2.45;;;7.60;99.90;;;;;;5005336;28;20207;-47
2023/02/04 11:07:38;;;;;;;2.65;2.28;;;7.60;99.90;;;;;;4985924;28;20227;-47
2023/02/04 11:10:12;;;;;;;3.83;2.30;;;7.60;99.90;;;;;;5008015;28;20200;-48
2023/02/04 11:12:43;;;;;;;3.10;2.25;;;7.60;99.90;;;;;;5004203;28;20689;-47
2023/02/04 11:15:39;;;;;;;4.30;2.55;;;7.60;99.90;;;;;;5007918;28;20266;-47
2023/02/04 11:18:10;;;;;;;3.07;2.20;;;7.60;99.90;;;;;;5003183;28;20235;-49
2023/02/04 11:20:39;;;;;;;4.38;2.42;;;7.60;99.90;;;;;;4999180;28;20476;-47
2023/02/04 11:23:17;;;;;;;3.85;2.45;;;7.60;99.90;;;;;;5006969;28;20230;-48
2023/02/04 11:25:49;;;;;;;4.05;2.10;;;7.60;99.90;;;;;;5003358;28;20200;-48
2023/02/04 11:28:25;;;;;;;5.47;2.60;;;7.60;99.90;;;;;;5004392;28;20545;-46
2023/02/04 11:31:02;;;;;;;4.15;2.55;;;7.60;99.90;;;;;;5002997;28;20298;-47
2023/02/04 11:33:39;;;;;;;5.70;2.50;;;7.60;99.90;;;;;;5006681;28;20846;-46
2023/02/04 11:36:10;;;;;;;3.85;2.83;;;7.60;99.90;;;;;;5007120;28;20204;-47
2023/02/04 11:38:43;;;;;;;3.55;2.00;;;7.60;99.90;;;;;;5005432;28;20219;-48
2023/02/04 11:41:18;;;;;;;5.25;2.55;;;7.60;99.90;;;;;;5004462;28;20224;-48
2023/02/04 11:43:46;;;;;;;4.50;2.13;;;7.60;99.90;;;;;;5007302;28;20230;-47
2023/02/04 11:46:18;;;;;;;2.45;2.05;;;7.60;99.90;;;;;;5000562;28;20686;-47
2023/02/04 11:48:46;;;;;;;3.53;1.80;;;7.70;99.90;;;;;;5006275;28;20284;-47
2023/02/04 11:51:17;;;;;;;4.57;2.60;;;7.60;99.90;;;;;;5006903;28;20228;-47
2023/02/04 11:53:52;;;;;;;4.57;2.17;;;7.60;99.90;;;;;;5006356;28;20436;-48
2023/02/04 11:56:22;;;;;;;3.55;2.55;;;7.60;99.90;;;;;;5005877;28;20531;-47
2023/02/04 11:58:51;;;;;;;4.10;1.90;;;7.60;99.90;;;;;;5007660;28;20204;-46
2023/02/04 12:01:25;;;;;;;3.67;1.88;;;7.60;99.90;;;;;;5006268;28;20604;-46
2023/02/04 12:03:58;;;;;;;2.15;1.75;;;7.70;99.90;;;;;;5005619;28;20728;-47
2023/02/04 12:06:30;;;;;;;3.85;2.33;;;7.60;99.90;;;;;;5000720;28;20204;-46
2023/02/04 12:09:06;;;;;;;5.90;2.72;;;7.70;99.90;;;;;;5006719;28;20210;-47
2023/02/04 12:11:35;;;;;;;2.95;2.65;;;7.60;99.90;;;;;;4997976;28;20592;-49
2023/02/04 12:14:09;;;;;;;4.73;2.20;;;7.70;99.90;;;;;;5003931;28;20196;-46
2023/02/04 12:16:45;;;;;;;5.05;2.13;;;7.70;99.90;;;;;;5000769;28;20563;-47
2023/02/04 12:19:14;;;;;;;3.80;1.90;;;7.60;99.90;;;;;;5002012;28;20203;-47
2023/02/04 12:21:43;;;;;;;5.85;2.45;;;7.70;99.90;;;;;;4999558;28;20485;-47
2023/02/04 12:24:14;;;;;;;4.25;2.25;;;7.70;99.90;;;;;;5001531;28;20777;-46
2023/02/04 12:26:43;;;;;;;2.50;1.60;;;7.70;99.90;;;;;;5005313;28;20266;-47
2023/02/04 12:29:12;;;;;;;7.93;2.55;;;7.70;99.90;;;;;;5003967;28;20206;-47
2023/02/04 12:31:41;;;;;;;3.95;1.85;;;7.70;99.90;;;;;;5000813;28;20567;-48
2023/02/04 12:34:11;;;;;;;2.65;2.05;;;7.70;99.90;;;;;;5005924;28;20187;-47
2023/02/04 12:36:39;;;;;;;2.40;2.10;;;7.70;99.90;;;;;;5002443;28;20294;-46
2023/02/04 12:39:09;;;;;;;3.80;2.83;;;7.70;99.90;;;;;;4993326;28;20667;-46
2023/02/04 12:41:38;;;;;;;7.38;2.45;;;7.70;99.90;;;;;;5000515;28;20223;-47
2023/02/04 12:44:06;;;;;;;5.33;2.23;;;7.70;99.90;;;;;;4994678;28;20591;-48
2023/02/04 12:46:35;;;;;;;2.60;2.35;;;7.70;99.90;;;;;;5002169;28;20962;-47
2023/02/04 12:49:04;;;;;;;7.73;2.43;;;7.70;99.90;;;;;;4998612;28;20239;-46
2023/02/04 12:51:35;;;;;;;3.00;2.00;;;7.70;99.90;;;;;;4995997;28;20529;-47
2023/02/04 12:54:04;;;;;;;3.00;2.08;;;7.70;99.90;;;;;;5004225;28;20845;-48
2023/02/04 12:56:34;;;;;;;2.80;1.33;;;7.70;99.90;;;;;;5001675;28;20216;-49
2023/02/04 12:59:02;;;;;;;3.22;1.70;;;7.70;99.90;;;;;;5000426;28;20207;-47
2023/02/04 13:01:32;;;;;;;4.57;1.90;;;7.70;99.90;;;;;;5005047;28;20223;-46
2023/02/04 13:04:04;;;;;;;3.63;2.30;;;7.70;99.90;;;;;;5003416;28;20274;-48
2023/02/04 13:06:34;;;;;;;3.20;2.25;;;7.70;99.90;;;;;;5005866;28;20487;-48
2023/02/04 13:09:06;;;;;;;4.65;2.00;;;7.70;99.90;;;;;;5006526;28;20223;-46
2023/02/04 13:11:34;;;;;;;1.92;1.70;;;7.70;99.90;;;;;;4995431;28;20221;-47